Accueil
METAR-TAF:

METAR-TAF

Aéroports :

Plate-forme pétrolière

K13-a, Pays-Bas

latitude: 53-13-04N, longitude: 3-13-13E, altitude: 31 m

Observation

Le bulletin a été fait il y a 26 minutes, à 02:55 UTC
Vent 13 kt de est/nord-est
Température 13°C
Humidité 94%
Pression 1020 hPa

METAR: EHJR 020255Z AUTO 06013KT //// // ///////// 13/12 Q1020 RE// W13/H8

Heure: 05:21 (03:21 UTC)


TAF: absent

Observations et prévisions météorologiques de plus de 4000 aéroports (messages METAR et TAF).

Les stations disponibles sont représentées par des disques jaunes et rouges sur la carte.

Passer la souris dessus pour voir le nom de la station.

Cliquer dessus pour voir les observations et prévisions météorologiques.

Pour changer de carte: cliquez sur les boutons verts avec une croix noire pour zoomer, sur le bouton vert avec un tiret pour effectuer un zoom arrière, ou sur les flèches vertes pour les cartes adjacentes.


METAR-TAF: